Time;durP1;ratioP1;P1;durP2;ratioP2;P2;SDS_P1;SDS_P2;PMS_P1;PMS_P2;Temp;Humidity;BMP_temperature;BMP_pressure;BME280_temperature;BME280_humidity;BME280_pressure;Samples;Min_cycle;Max_cycle;Signal;HPM_P1;HPM_P2
2023/05/15 00:01:25;;;;;;;23.58;13.30;;;11.70;99.90;;;;;;5014616;28;20278;-68
2023/05/15 00:03:51;;;;;;;26.13;13.45;;;11.70;99.90;;;;;;5021522;28;20527;-68
2023/05/15 00:06:17;;;;;;;22.43;13.00;;;11.80;99.90;;;;;;5020928;28;20120;-68
2023/05/15 00:08:43;;;;;;;23.50;13.63;;;11.70;99.90;;;;;;5029813;28;20553;-69
2023/05/15 00:11:09;;;;;;;26.00;15.10;;;11.70;99.90;;;;;;5025398;28;20045;-68
2023/05/15 00:13:37;;;;;;;25.90;13.88;;;11.70;99.90;;;;;;5031316;28;20486;-69
2023/05/15 00:16:06;;;;;;;23.98;13.50;;;11.70;99.90;;;;;;5019149;28;20691;-68
2023/05/15 00:18:32;;;;;;;26.85;14.02;;;11.70;99.90;;;;;;5016571;28;20152;-68
2023/05/15 00:20:58;;;;;;;26.90;12.90;;;11.70;99.90;;;;;;5016801;28;20124;-68
2023/05/15 00:23:23;;;;;;;23.88;12.65;;;11.60;99.90;;;;;;5006780;28;20049;-68
2023/05/15 00:25:49;;;;;;;22.30;12.33;;;11.70;99.90;;;;;;5012289;28;20156;-68
2023/05/15 00:28:15;;;;;;;24.85;12.07;;;11.60;99.90;;;;;;5014313;28;20045;-68
2023/05/15 00:30:41;;;;;;;22.97;12.50;;;11.60;99.90;;;;;;5014617;28;20042;-68
2023/05/15 00:33:06;;;;;;;22.60;12.17;;;11.50;99.90;;;;;;5023539;28;20797;-68
2023/05/15 00:35:32;;;;;;;20.10;11.90;;;11.50;99.90;;;;;;5041578;22;20036;-69
2023/05/15 00:37:58;;;;;;;23.88;12.38;;;11.50;99.90;;;;;;5037411;28;20097;-73
2023/05/15 00:40:25;;;;;;;21.50;11.70;;;11.50;99.90;;;;;;5041072;28;20197;-69
2023/05/15 00:42:52;;;;;;;21.52;12.35;;;11.40;99.90;;;;;;5034870;28;20048;-69
2023/05/15 00:45:18;;;;;;;20.65;12.05;;;11.40;99.90;;;;;;5045560;28;20048;-69
2023/05/15 00:47:45;;;;;;;23.15;12.15;;;11.40;99.90;;;;;;5044367;28;20124;-69
2023/05/15 00:50:10;;;;;;;;;;;11.40;99.90;;;;;;5040830;28;20041;-69
2023/05/15 00:52:37;;;;;;;21.00;11.65;;;11.40;99.90;;;;;;5044536;28;19939;-70
2023/05/15 00:55:06;;;;;;;27.15;12.90;;;11.40;99.90;;;;;;5036156;28;20439;-69
2023/05/15 00:57:33;;;;;;;24.88;12.13;;;11.40;99.90;;;;;;5044501;28;20497;-70
2023/05/15 01:00:00;;;;;;;23.77;12.43;;;11.40;99.90;;;;;;5037336;28;20053;-69
2023/05/15 01:02:26;;;;;;;31.33;12.65;;;11.30;99.90;;;;;;5037996;28;20048;-70
2023/05/15 01:04:51;;;;;;;25.70;11.95;;;11.30;99.90;;;;;;5036638;28;20056;-69
2023/05/15 01:07:17;;;;;;;20.77;11.68;;;11.30;99.90;;;;;;5044283;28;20470;-70
2023/05/15 01:09:44;;;;;;;24.92;12.68;;;11.30;99.90;;;;;;5045223;28;20072;-69
2023/05/15 01:12:11;;;;;;;23.92;12.43;;;11.40;99.90;;;;;;5043595;28;20094;-70
2023/05/15 01:14:37;;;;;;;24.58;13.73;;;11.30;99.90;;;;;;5040774;28;20214;-69
2023/05/15 01:17:03;;;;;;;28.38;12.82;;;11.30;99.90;;;;;;5039635;28;20482;-70
2023/05/15 01:19:29;;;;;;;27.03;13.53;;;11.30;99.90;;;;;;5038880;28;20075;-69
2023/05/15 01:22:13;;;;;;;23.55;12.82;;;11.30;99.90;;;;;;5033541;28;20072;-70
2023/05/15 01:24:54;;;;;;;23.65;12.50;;;11.30;99.90;;;;;;5036021;28;20368;-75
2023/05/15 01:27:42;;;;;;;27.50;12.52;;;11.30;99.90;;;;;;5033632;28;20056;-69
2023/05/15 01:30:32;;;;;;;27.33;14.20;;;11.30;99.90;;;;;;5042961;28;20045;-70
2023/05/15 01:33:19;;;;;;;25.88;13.27;;;11.20;99.90;;;;;;5038965;28;20041;-69
2023/05/15 01:36:06;;;;;;;25.27;14.02;;;11.20;99.90;;;;;;5044723;28;20041;-69
2023/05/15 01:38:46;;;;;;;27.77;14.45;;;11.20;99.90;;;;;;5031846;28;20041;-70
2023/05/15 01:41:24;;;;;;;28.83;15.15;;;11.10;99.90;;;;;;5034896;28;20536;-70
2023/05/15 01:44:05;;;;;;;31.10;15.18;;;11.10;99.90;;;;;;5038249;28;20136;-69
2023/05/15 01:46:37;;;;;;;26.67;13.90;;;11.00;99.90;;;;;;5041263;28;20442;-69
2023/05/15 01:49:03;;;;;;;27.50;15.38;;;11.00;99.90;;;;;;5043879;28;20553;-69
2023/05/15 01:51:30;;;;;;;25.30;13.75;;;11.00;99.90;;;;;;5042118;28;20690;-69
2023/05/15 01:53:58;;;;;;;30.92;14.40;;;11.00;99.90;;;;;;5039157;28;20048;-70
2023/05/15 01:56:25;;;;;;;29.25;15.13;;;11.00;99.90;;;;;;5035803;28;20351;-69
2023/05/15 01:58:52;;;;;;;28.33;14.07;;;11.00;99.90;;;;;;5046140;28;20044;-69
2023/05/15 02:01:18;;;;;;;28.63;13.82;;;11.00;99.90;;;;;;5045622;28;20067;-69
2023/05/15 02:03:45;;;;;;;25.02;14.23;;;11.00;99.90;;;;;;5041630;28;20040;-69
2023/05/15 02:06:12;;;;;;;26.42;13.93;;;11.00;99.90;;;;;;5038335;28;20142;-69
2023/05/15 02:08:39;;;;;;;27.63;13.40;;;10.90;99.90;;;;;;5044207;28;20049;-69
2023/05/15 02:11:06;;;;;;;23.40;13.50;;;11.00;99.90;;;;;;5043348;28;20060;-70
2023/05/15 02:13:32;;;;;;;23.67;13.02;;;10.90;99.90;;;;;;5044551;28;20471;-69
2023/05/15 02:15:58;;;;;;;;;;;10.90;99.90;;;;;;5043682;28;20044;-69
2023/05/15 02:18:24;;;;;;;27.35;12.60;;;10.90;99.90;;;;;;5046623;28;20058;-69
2023/05/15 02:20:50;;;;;;;20.60;11.60;;;10.90;99.90;;;;;;5042515;28;20671;-70
2023/05/15 02:23:16;;;;;;;20.33;11.90;;;10.80;99.90;;;;;;5040126;28;20123;-69
2023/05/15 02:26:20;;;;;;;19.27;10.43;;;10.80;99.90;;;;;;5037803;28;20168;-69
2023/05/15 02:29:09;;;;;;;21.60;11.57;;;10.80;99.90;;;;;;5032377;28;20065;-69
2023/05/15 02:31:40;;;;;;;21.73;12.27;;;10.80;99.90;;;;;;5036991;28;20036;-69
2023/05/15 02:34:43;;;;;;;21.20;11.43;;;10.80;99.90;;;;;;5042648;28;20036;-69
2023/05/15 02:37:13;;;;;;;25.77;12.48;;;10.80;99.90;;;;;;5011751;28;20317;-69
2023/05/15 02:39:42;;;;;;;20.33;12.00;;;10.70;99.90;;;;;;5037807;28;20115;-69
2023/05/15 02:42:10;;;;;;;20.35;12.52;;;10.80;99.90;;;;;;5030996;28;20527;-69
2023/05/15 02:44:39;;;;;;;20.08;11.38;;;10.80;99.90;;;;;;5033782;28;20196;-70
2023/05/15 02:47:05;;;;;;;22.70;12.90;;;10.80;99.90;;;;;;5038300;28;20483;-70
2023/05/15 02:49:34;;;;;;;19.60;11.70;;;10.80;99.90;;;;;;5038547;28;20037;-69
2023/05/15 02:52:00;;;;;;;24.48;12.88;;;10.80;99.90;;;;;;5045189;28;20040;-69
2023/05/15 02:54:26;;;;;;;19.67;11.83;;;10.80;99.90;;;;;;5035558;28;20094;-69
2023/05/15 02:56:51;;;;;;;21.17;11.87;;;10.80;99.90;;;;;;5043464;28;20285;-70
2023/05/15 02:59:18;;;;;;;19.83;10.83;;;10.80;99.90;;;;;;5042733;28;20064;-69
2023/05/15 03:01:48;;;;;;;20.55;11.65;;;10.80;99.90;;;;;;5038958;28;20033;-69
2023/05/15 03:04:14;;;;;;;21.77;11.23;;;10.80;99.90;;;;;;5035519;28;20137;-69
2023/05/15 03:06:40;;;;;;;20.08;10.98;;;10.90;99.90;;;;;;5037721;28;20127;-69
2023/05/15 03:09:05;;;;;;;20.50;10.97;;;10.80;99.90;;;;;;5038584;28;20597;-69
2023/05/15 03:11:31;;;;;;;22.50;11.43;;;10.80;99.90;;;;;;5040514;28;20470;-69
2023/05/15 03:13:58;;;;;;;17.27;10.10;;;10.80;99.90;;;;;;5042489;28;20284;-69
2023/05/15 03:16:25;;;;;;;17.67;9.40;;;10.90;99.90;;;;;;5031830;28;20059;-69
2023/05/15 03:18:51;;;;;;;;;;;10.90;99.90;;;;;;5039460;28;20049;-69
2023/05/15 03:21:18;;;;;;;18.63;11.18;;;10.90;99.90;;;;;;5037987;28;19931;-69
2023/05/15 03:23:43;;;;;;;18.58;10.50;;;10.90;99.90;;;;;;5040190;28;20068;-69
2023/05/15 03:26:09;;;;;;;21.17;10.97;;;10.90;99.90;;;;;;5042861;28;20118;-69
2023/05/15 03:28:34;;;;;;;22.80;10.53;;;10.90;99.90;;;;;;5031691;28;20144;-69
2023/05/15 03:31:00;;;;;;;17.20;10.40;;;11.00;99.90;;;;;;5034528;28;20045;-69
2023/05/15 03:33:26;;;;;;;19.57;10.13;;;11.00;99.90;;;;;;5040714;28;20044;-70
2023/05/15 03:35:54;;;;;;;17.53;9.43;;;11.00;99.90;;;;;;5043211;28;20286;-69
2023/05/15 03:38:20;;;;;;;19.58;10.75;;;11.00;99.90;;;;;;5040208;28;20073;-69
2023/05/15 03:40:45;;;;;;;18.40;10.40;;;11.00;99.90;;;;;;5039793;28;20041;-69
2023/05/15 03:43:13;;;;;;;17.90;10.27;;;11.00;99.90;;;;;;5035931;28;20294;-69
2023/05/15 03:45:39;;;;;;;17.27;10.30;;;10.90;99.90;;;;;;5040032;28;20041;-70
2023/05/15 03:48:05;;;;;;;16.73;9.43;;;11.00;99.90;;;;;;5030747;28;20040;-70
2023/05/15 03:50:36;;;;;;;16.90;10.18;;;11.00;99.90;;;;;;5040987;28;20586;-69
2023/05/15 03:53:01;;;;;;;13.82;9.10;;;10.90;99.90;;;;;;5041185;28;20048;-69
2023/05/15 03:55:27;;;;;;;15.70;9.53;;;11.00;99.90;;;;;;5043634;28;20042;-71
2023/05/15 03:57:53;;;;;;;18.17;10.70;;;11.00;99.90;;;;;;5041455;28;20053;-69
2023/05/15 04:00:19;;;;;;;17.13;10.07;;;11.00;99.90;;;;;;5034500;28;20091;-69
2023/05/15 04:02:44;;;;;;;17.90;9.15;;;11.00;99.90;;;;;;5033433;28;20072;-70
2023/05/15 04:05:10;;;;;;;15.70;9.60;;;11.10;99.90;;;;;;5039060;28;20051;-69
2023/05/15 04:07:36;;;;;;;17.15;9.25;;;11.10;99.90;;;;;;5024191;28;20064;-70
2023/05/15 04:10:02;;;;;;;16.75;9.68;;;11.10;99.90;;;;;;5040064;28;20091;-69
2023/05/15 04:12:29;;;;;;;16.67;10.15;;;11.10;99.90;;;;;;5044248;28;20033;-69
2023/05/15 04:15:15;;;;;;;17.05;9.23;;;11.20;99.90;;;;;;5039513;28;20038;-69
2023/05/15 04:17:41;;;;;;;16.55;9.23;;;11.30;99.90;;;;;;5036327;28;20063;-69
2023/05/15 04:20:08;;;;;;;15.57;9.15;;;11.30;99.90;;;;;;5048047;28;20166;-69
2023/05/15 04:22:34;;;;;;;15.25;8.95;;;11.30;99.90;;;;;;5038199;28;20074;-70
2023/05/15 04:25:00;;;;;;;16.47;9.47;;;11.30;99.90;;;;;;5034732;28;20045;-69
2023/05/15 04:27:25;;;;;;;17.57;9.30;;;11.30;99.90;;;;;;5046842;28;20435;-69
2023/05/15 04:29:51;;;;;;;15.60;9.50;;;11.40;99.90;;;;;;5049366;28;20374;-69
2023/05/15 04:32:17;;;;;;;15.30;8.50;;;11.40;99.90;;;;;;5045388;28;20032;-69
2023/05/15 04:34:42;;;;;;;15.97;9.80;;;11.40;99.90;;;;;;5051893;28;20398;-69
2023/05/15 04:37:09;;;;;;;18.33;10.70;;;11.30;99.90;;;;;;5047317;28;20079;-69
2023/05/15 04:39:35;;;;;;;16.80;8.77;;;11.40;99.90;;;;;;5042391;28;20361;-69
2023/05/15 04:42:01;;;;;;;20.33;9.87;;;11.40;99.90;;;;;;5034144;28;20128;-69
2023/05/15 04:44:26;;;;;;;16.92;9.68;;;11.40;99.90;;;;;;5044208;28;20352;-69
2023/05/15 04:46:54;;;;;;;16.92;9.77;;;11.40;99.90;;;;;;5044321;28;20309;-69
2023/05/15 04:49:23;;;;;;;19.33;10.38;;;11.30;99.90;;;;;;5045720;28;20494;-69
2023/05/15 04:51:48;;;;;;;19.15;10.88;;;11.40;99.90;;;;;;5045435;28;20170;-69
2023/05/15 04:54:17;;;;;;;19.57;10.67;;;11.30;99.90;;;;;;5045478;28;20043;-69
2023/05/15 04:56:44;;;;;;;17.40;10.23;;;11.30;99.90;;;;;;5036531;28;20037;-69
2023/05/15 04:59:10;;;;;;;16.90;10.30;;;11.40;99.90;;;;;;5038347;28;20441;-69
2023/05/15 05:01:36;;;;;;;19.37;10.63;;;11.40;99.90;;;;;;5040268;28;20067;-69
2023/05/15 05:04:01;;;;;;;17.48;11.18;;;11.40;99.90;;;;;;5046038;28;20439;-69
2023/05/15 05:06:27;;;;;;;16.95;10.63;;;11.40;99.90;;;;;;5043071;28;20075;-69
2023/05/15 05:08:53;;;;;;;16.27;9.93;;;11.40;99.90;;;;;;5045477;28;20041;-69
2023/05/15 05:11:18;;;;;;;19.10;10.40;;;11.50;99.90;;;;;;5037289;28;20281;-69
2023/05/15 05:13:44;;;;;;;17.77;10.40;;;11.50;99.90;;;;;;5044241;28;20267;-69
2023/05/15 05:16:10;;;;;;;16.57;10.63;;;11.50;99.90;;;;;;5039889;28;20045;-69
2023/05/15 05:18:36;;;;;;;17.23;10.17;;;11.60;99.90;;;;;;5042616;28;20057;-69
2023/05/15 05:21:03;;;;;;;17.77;10.55;;;11.60;99.90;;;;;;5030806;28;20282;-69
2023/05/15 05:23:29;;;;;;;15.52;9.85;;;11.60;99.90;;;;;;5040151;28;20129;-69
2023/05/15 05:25:55;;;;;;;20.52;11.77;;;11.50;99.90;;;;;;5038403;28;20128;-69
2023/05/15 05:28:21;;;;;;;18.15;10.05;;;11.60;99.90;;;;;;5045740;28;20132;-69
2023/05/15 05:30:47;;;;;;;19.67;11.07;;;11.70;99.90;;;;;;5042530;28;20068;-69
2023/05/15 05:33:13;;;;;;;;;;;11.70;99.90;;;;;;5046737;28;20033;-69
2023/05/15 05:35:39;;;;;;;26.00;12.07;;;11.70;99.90;;;;;;5045927;28;19917;-70
2023/05/15 05:38:04;;;;;;;21.70;11.77;;;11.80;99.90;;;;;;5038106;28;20030;-72
2023/05/15 05:40:30;;;;;;;21.00;11.00;;;11.80;99.90;;;;;;5044816;28;20048;-70
2023/05/15 05:43:02;;;;;;;20.90;11.15;;;11.80;99.90;;;;;;5039225;28;20033;-69
2023/05/15 05:45:28;;;;;;;22.70;11.02;;;11.80;99.90;;;;;;5021489;28;20037;-69
2023/05/15 05:47:57;;;;;;;20.38;11.30;;;11.90;99.90;;;;;;5046749;28;20044;-73
2023/05/15 05:50:23;;;;;;;18.27;10.13;;;11.90;99.90;;;;;;5037834;28;20482;-70
2023/05/15 05:52:49;;;;;;;18.45;10.13;;;11.90;99.90;;;;;;5038384;28;20081;-69
2023/05/15 05:55:23;;;;;;;19.25;9.43;;;11.90;99.90;;;;;;5043723;28;20052;-69
2023/05/15 05:57:49;;;;;;;14.82;8.95;;;11.90;99.90;;;;;;5047176;28;20048;-71
2023/05/15 06:00:15;;;;;;;14.73;8.98;;;12.00;99.90;;;;;;5041598;28;20368;-70
2023/05/15 06:02:41;;;;;;;15.10;8.60;;;11.90;99.90;;;;;;5036856;28;20067;-70
2023/05/15 06:05:09;;;;;;;12.63;8.27;;;11.90;99.90;;;;;;5039475;28;20049;-73
2023/05/15 06:07:35;;;;;;;14.75;7.90;;;11.90;99.90;;;;;;5041100;28;20316;-73
2023/05/15 06:10:01;;;;;;;14.02;8.40;;;12.00;99.90;;;;;;5037307;28;20036;-69
2023/05/15 06:12:27;;;;;;;13.48;7.88;;;12.00;99.90;;;;;;5035053;28;20055;-69
2023/05/15 06:14:53;;;;;;;10.23;7.10;;;12.10;99.90;;;;;;5038112;28;20028;-68
2023/05/15 06:17:18;;;;;;;11.23;6.87;;;12.10;99.90;;;;;;5040472;28;20302;-69
2023/05/15 06:19:44;;;;;;;10.40;6.43;;;12.10;99.90;;;;;;5039687;28;20546;-68
2023/05/15 06:22:10;;;;;;;12.73;7.73;;;12.10;99.90;;;;;;5038180;28;20091;-68
2023/05/15 06:24:35;;;;;;;11.27;8.00;;;12.20;99.90;;;;;;5030592;28;20037;-68
2023/05/15 06:27:01;;;;;;;12.50;7.47;;;12.20;99.90;;;;;;5034827;28;20317;-68
2023/05/15 06:29:27;;;;;;;11.43;7.90;;;12.20;99.90;;;;;;5040349;28;20052;-69
2023/05/15 06:31:52;;;;;;;11.90;8.38;;;12.20;99.90;;;;;;5029785;28;20395;-68
2023/05/15 06:34:18;;;;;;;13.70;8.73;;;12.20;99.90;;;;;;5030851;28;20444;-68
2023/05/15 06:36:45;;;;;;;16.48;8.30;;;12.20;99.90;;;;;;5061915;22;20053;-87
2023/05/15 06:39:11;;;;;;;11.93;8.10;;;12.20;99.90;;;;;;5020364;28;20049;-88
2023/05/15 06:41:37;;;;;;;19.15;10.00;;;12.30;99.90;;;;;;5048773;28;20167;-87
2023/05/15 06:44:06;;;;;;;15.05;8.82;;;12.30;99.90;;;;;;5028858;28;20112;-88
2023/05/15 06:46:34;;;;;;;16.05;9.90;;;12.30;99.90;;;;;;5036854;28;20075;-88
2023/05/15 06:49:02;;;;;;;13.93;9.18;;;12.30;99.90;;;;;;5023866;28;20139;-89
2023/05/15 06:51:28;;;;;;;14.88;9.52;;;12.30;99.90;;;;;;5019835;28;20049;-89
2023/05/15 06:53:57;;;;;;;13.80;8.90;;;12.40;99.90;;;;;;5025477;28;20041;-88
2023/05/15 06:56:22;;;;;;;13.75;8.65;;;12.50;99.90;;;;;;5023125;28;20041;-87
2023/05/15 06:58:51;;;;;;;15.35;9.43;;;12.60;99.90;;;;;;5004597;28;20505;-88
2023/05/15 07:01:20;;;;;;;17.20;8.98;;;12.70;99.90;;;;;;5026371;28;20040;-87
2023/05/15 07:03:48;;;;;;;15.30;9.35;;;12.70;99.90;;;;;;5002509;28;20128;-87
2023/05/15 07:06:14;;;;;;;15.13;9.38;;;12.80;99.90;;;;;;5005964;28;20053;-91
2023/05/15 07:08:43;;;;;;;14.07;9.00;;;12.90;99.90;;;;;;5010379;28;20032;-88
2023/05/15 07:11:14;;;;;;;15.93;9.60;;;12.90;99.90;;;;;;5021482;28;20067;-87
2023/05/15 07:13:39;;;;;;;15.30;9.25;;;12.90;99.90;;;;;;5024657;28;20069;-87
2023/05/15 07:16:05;;;;;;;15.30;9.00;;;12.90;99.90;;;;;;5022755;28;20041;-87
2023/05/15 07:18:37;;;;;;;14.88;9.13;;;13.00;99.90;;;;;;4999500;28;20137;-88
2023/05/15 07:21:03;;;;;;;18.65;10.18;;;13.00;99.90;;;;;;5004788;28;20042;-88
2023/05/15 07:23:32;;;;;;;14.38;9.15;;;13.00;99.90;;;;;;5005148;28;20045;-89
2023/05/15 07:25:57;;;;;;;17.05;9.75;;;13.00;99.90;;;;;;5032309;22;20049;-88
2023/05/15 07:28:26;;;;;;;17.38;9.77;;;13.10;99.90;;;;;;5010356;28;20488;-87
2023/05/15 07:30:55;;;;;;;16.95;9.73;;;13.20;99.90;;;;;;5012188;28;20085;-88
2023/05/15 07:33:30;;;;;;;15.15;9.82;;;13.20;99.90;;;;;;5012417;28;20486;-88
2023/05/15 07:35:55;;;;;;;15.27;9.18;;;13.30;99.90;;;;;;5009774;28;20067;-87
2023/05/15 07:38:21;;;;;;;14.00;8.27;;;13.30;99.90;;;;;;4985574;28;20501;-89
2023/05/15 07:40:47;;;;;;;15.47;9.73;;;13.40;99.90;;;;;;4990392;28;20738;-88
2023/05/15 07:43:12;;;;;;;16.93;8.40;;;13.50;99.90;;;;;;5016736;28;20282;-88
2023/05/15 07:45:41;;;;;;;18.43;8.93;;;13.50;99.90;;;;;;4993573;28;20091;-88
2023/05/15 07:48:14;;;;;;;16.45;8.57;;;13.60;99.90;;;;;;4996345;28;20298;-88
2023/05/15 07:50:40;;;;;;;14.00;7.53;;;13.50;99.90;;;;;;5009043;28;20516;-88
2023/05/15 07:53:06;;;;;;;13.20;7.70;;;13.60;99.90;;;;;;5007770;28;20060;-90
2023/05/15 07:55:32;;;;;;;13.10;8.07;;;13.70;99.90;;;;;;5010900;28;20038;-91
2023/05/15 07:57:58;;;;;;;10.13;7.07;;;13.60;99.90;;;;;;5000519;28;20454;-90
2023/05/15 08:00:24;;;;;;;11.50;7.07;;;13.70;99.90;;;;;;4995526;28;20046;-89
2023/05/15 08:02:50;;;;;;;11.85;7.28;;;13.80;99.90;;;;;;4990788;28;20090;-91
2023/05/15 08:05:23;;;;;;;13.32;7.13;;;14.00;99.90;;;;;;4994244;28;20312;-91
2023/05/15 08:07:52;;;;;;;10.30;6.28;;;13.90;99.90;;;;;;5013310;28;20167;-89
2023/05/15 08:10:30;;;;;;;13.48;6.78;;;14.00;99.90;;;;;;4993574;28;20120;-91
2023/05/15 08:13:02;;;;;;;10.73;6.70;;;14.00;99.90;;;;;;4992832;28;20061;-90
2023/05/15 08:15:30;;;;;;;15.15;6.80;;;14.10;99.90;;;;;;5002941;28;20056;-90
2023/05/15 08:17:56;;;;;;;10.43;6.25;;;14.20;99.90;;;;;;4992613;28;20546;-91
2023/05/15 08:20:22;;;;;;;13.73;7.60;;;14.20;99.90;;;;;;4990697;28;20037;-91
2023/05/15 08:22:53;;;;;;;12.60;6.70;;;14.20;99.90;;;;;;4991610;28;20585;-90
2023/05/15 08:25:19;;;;;;;10.88;6.43;;;14.30;99.90;;;;;;4988360;28;20287;-90
2023/05/15 08:27:45;;;;;;;11.30;6.82;;;14.30;99.90;;;;;;4998956;28;20184;-90
2023/05/15 08:30:13;;;;;;;10.85;6.80;;;14.50;99.90;;;;;;5008238;28;20038;-91
2023/05/15 08:32:44;;;;;;;10.18;5.97;;;14.70;99.90;;;;;;4991619;28;20069;-90
2023/05/15 08:35:10;;;;;;;13.25;6.47;;;14.90;99.90;;;;;;4991581;28;20072;-90
2023/05/15 08:37:41;;;;;;;10.55;7.00;;;15.00;99.90;;;;;;4994407;28;20069;-90
2023/05/15 08:40:08;;;;;;;10.77;6.97;;;15.10;99.90;;;;;;4993530;28;20046;-90
2023/05/15 08:42:59;;;;;;;12.80;7.20;;;15.10;99.90;;;;;;4999701;28;20073;-89
2023/05/15 08:45:26;;;;;;;11.50;6.72;;;15.10;99.90;;;;;;4983895;28;20137;-90
2023/05/15 08:47:53;;;;;;;14.80;6.32;;;15.20;99.90;;;;;;5002020;28;20033;-91
2023/05/15 08:50:22;;;;;;;9.23;5.65;;;15.30;99.90;;;;;;4986959;28;20084;-90
2023/05/15 08:52:57;;;;;;;10.90;6.13;;;15.30;99.90;;;;;;4991714;28;20144;-91
2023/05/15 08:55:22;;;;;;;10.30;6.57;;;15.50;99.90;;;;;;4998396;28;20095;-91
2023/05/15 08:57:53;;;;;;;10.73;6.63;;;15.50;99.90;;;;;;5018988;22;20045;-90
2023/05/15 09:00:21;;;;;;;9.10;6.10;;;15.60;99.90;;;;;;5017636;28;20045;-91
2023/05/15 09:02:47;;;;;;;10.88;6.35;;;15.50;99.90;;;;;;5002863;28;20235;-89
2023/05/15 09:05:12;;;;;;;10.52;5.80;;;15.60;99.90;;;;;;5027665;28;20514;-89
2023/05/15 09:07:43;;;;;;;12.65;6.93;;;15.70;99.90;;;;;;5003120;28;20069;-89
2023/05/15 09:10:10;;;;;;;10.27;7.13;;;15.80;99.90;;;;;;4992801;28;20064;-91
2023/05/15 09:12:39;;;;;;;;;;;16.00;99.90;;;;;;4993257;28;20764;-89
2023/05/15 09:15:22;;;;;;;10.05;7.38;;;16.00;99.90;;;;;;5001400;28;19917;-91
2023/05/15 09:17:49;;;;;;;11.73;7.55;;;16.20;99.90;;;;;;4995631;28;20030;-90
2023/05/15 09:20:45;;;;;;;11.32;6.88;;;16.40;99.90;;;;;;4989263;28;20073;-89
2023/05/15 09:23:23;;;;;;;12.48;8.60;;;16.50;99.90;;;;;;4991131;28;20133;-90
2023/05/15 09:25:55;;;;;;;10.65;7.15;;;16.60;99.90;;;;;;4993397;28;20120;-91
2023/05/15 09:28:35;;;;;;;11.13;7.68;;;16.60;99.90;;;;;;4983462;28;20520;-91
2023/05/15 09:31:03;;;;;;;12.25;7.38;;;16.60;99.90;;;;;;4996587;28;20106;-89
2023/05/15 09:33:36;;;;;;;11.07;7.72;;;16.60;99.90;;;;;;4998689;28;20029;-91
2023/05/15 09:36:25;;;;;;;11.45;7.70;;;16.60;99.90;;;;;;4997695;28;20030;-89
2023/05/15 09:39:07;;;;;;;10.88;7.85;;;16.60;99.90;;;;;;4999052;28;20068;-89
2023/05/15 09:41:33;;;;;;;13.02;8.00;;;16.60;99.90;;;;;;5005810;28;20145;-90
2023/05/15 09:43:59;;;;;;;13.05;7.78;;;16.60;99.90;;;;;;4999544;28;20092;-90
2023/05/15 09:46:35;;;;;;;12.55;7.63;;;16.70;99.90;;;;;;4996409;28;20046;-91
2023/05/15 09:49:21;;;;;;;13.82;8.38;;;17.00;99.90;;;;;;4996619;28;20494;-90
2023/05/15 09:51:50;;;;;;;11.90;7.15;;;17.00;99.90;;;;;;5002105;28;20220;-91
2023/05/15 09:54:22;;;;;;;12.40;8.60;;;17.30;99.90;;;;;;4996309;28;20067;-90
2023/05/15 09:59:20;;;;;;;10.73;7.35;;;17.50;99.90;;;;;;5025153;28;20443;-68
2023/05/15 10:01:48;;;;;;;11.50;6.78;;;17.50;99.90;;;;;;5013943;28;20060;-69
2023/05/15 10:04:14;;;;;;;12.93;7.63;;;17.50;99.90;;;;;;5044688;28;20402;-69
2023/05/15 10:06:42;;;;;;;;;;;17.50;99.90;;;;;;5023309;28;20047;-68
2023/05/15 10:09:09;;;;;;;9.70;6.90;;;17.50;99.90;;;;;;5014531;28;20383;-69
2023/05/15 10:11:44;;;;;;;11.95;7.30;;;17.40;99.90;;;;;;5015446;28;20050;-69
2023/05/15 10:14:12;;;;;;;7.85;5.43;;;17.30;99.90;;;;;;5035922;28;20404;-68
2023/05/15 10:16:39;;;;;;;10.77;6.68;;;17.20;99.90;;;;;;5011092;28;20123;-69
2023/05/15 10:19:07;;;;;;;10.27;6.43;;;17.30;99.90;;;;;;5017882;28;20478;-69
2023/05/15 10:21:35;;;;;;;10.90;7.10;;;17.30;99.90;;;;;;5033547;28;20414;-68
2023/05/15 10:24:01;;;;;;;11.73;6.57;;;17.30;99.90;;;;;;5014767;28;20516;-69
2023/05/15 10:26:26;;;;;;;;;;;17.20;99.90;;;;;;5037726;28;20417;-68
2023/05/15 10:28:53;;;;;;;12.10;5.97;;;17.10;99.90;;;;;;5018451;28;20073;-69
2023/05/15 10:31:19;;;;;;;8.27;6.03;;;17.10;99.90;;;;;;5013308;28;20049;-69
2023/05/15 10:33:46;;;;;;;13.57;6.18;;;17.10;99.90;;;;;;5022177;28;20041;-68
2023/05/15 10:36:13;;;;;;;10.90;7.00;;;17.00;99.90;;;;;;5022463;28;20495;-70
2023/05/15 10:38:39;;;;;;;10.63;6.30;;;17.00;99.90;;;;;;5015555;28;20320;-69
2023/05/15 10:41:07;;;;;;;8.20;5.68;;;17.00;99.90;;;;;;5009261;28;20440;-68
2023/05/15 10:43:34;;;;;;;10.77;6.25;;;16.90;99.90;;;;;;5030235;28;20042;-68
2023/05/15 10:46:01;;;;;;;12.90;6.78;;;16.90;99.90;;;;;;5017846;28;20081;-68
2023/05/15 10:48:27;;;;;;;11.13;6.20;;;16.80;99.90;;;;;;5022905;28;20079;-69
2023/05/15 10:50:52;;;;;;;9.65;7.05;;;16.90;99.90;;;;;;5014290;28;20116;-69
2023/05/15 10:53:19;;;;;;;9.00;6.40;;;16.90;99.90;;;;;;5019885;28;20128;-69
2023/05/15 10:55:48;;;;;;;9.10;6.20;;;17.00;99.90;;;;;;5018244;28;20033;-69
2023/05/15 10:58:13;;;;;;;9.80;6.10;;;17.00;99.90;;;;;;5013785;28;20095;-69
2023/05/15 11:00:42;;;;;;;10.32;6.78;;;17.10;99.90;;;;;;5016058;28;20355;-69
2023/05/15 11:03:13;;;;;;;10.10;6.28;;;17.20;99.90;;;;;;5021672;28;20056;-68
2023/05/15 11:06:10;;;;;;;10.57;7.78;;;17.30;99.90;;;;;;5020176;28;20053;-69
2023/05/15 11:08:37;;;;;;;9.80;7.40;;;17.30;99.90;;;;;;5011367;28;20038;-69
2023/05/15 11:11:03;;;;;;;13.82;8.05;;;17.10;99.90;;;;;;5015856;28;20049;-69
2023/05/15 11:14:04;;;;;;;13.00;7.13;;;17.00;99.90;;;;;;5016524;28;20103;-68
2023/05/15 11:16:57;;;;;;;13.13;7.65;;;16.90;99.90;;;;;;5010220;28;20049;-69
2023/05/15 11:19:36;;;;;;;8.82;6.60;;;16.90;99.90;;;;;;5023470;28;20513;-70
2023/05/15 11:22:17;;;;;;;11.45;7.57;;;16.90;99.90;;;;;;5008167;28;20124;-69
2023/05/15 11:25:11;;;;;;;11.30;6.93;;;16.90;99.90;;;;;;5032961;28;20034;-68
2023/05/15 11:27:39;;;;;;;10.48;6.65;;;17.00;99.90;;;;;;5029747;28;20510;-69
2023/05/15 11:30:17;;;;;;;10.23;6.57;;;17.00;99.90;;;;;;5010189;28;20103;-69
2023/05/15 11:32:46;;;;;;;9.45;6.20;;;17.20;99.90;;;;;;5019799;28;20487;-69
2023/05/15 11:35:24;;;;;;;8.63;5.80;;;17.30;99.90;;;;;;5015993;28;20557;-69
2023/05/15 11:37:53;;;;;;;8.38;4.85;;;17.40;99.90;;;;;;5016110;28;20127;-68
2023/05/15 11:40:26;;;;;;;12.05;5.57;;;17.60;99.90;;;;;;5015702;28;20073;-69
2023/05/15 11:43:15;;;;;;;10.15;4.78;;;17.80;99.90;;;;;;4995718;28;20056;-68
2023/05/15 11:45:42;;;;;;;6.03;4.32;;;17.80;99.90;;;;;;5015290;28;20391;-69
2023/05/15 11:48:12;;;;;;;6.53;4.38;;;17.90;99.90;;;;;;5018564;28;20063;-69
2023/05/15 11:50:38;;;;;;;6.63;4.50;;;17.90;99.90;;;;;;5015954;28;20160;-68
2023/05/15 11:53:07;;;;;;;8.60;4.20;;;17.70;99.90;;;;;;5000232;28;20045;-69
2023/05/15 11:55:35;;;;;;;5.90;4.07;;;17.60;99.90;;;;;;5020007;28;20072;-70
2023/05/15 11:58:02;;;;;;;5.70;3.85;;;17.50;99.90;;;;;;5016939;28;20438;-69
2023/05/15 12:00:28;;;;;;;6.65;4.03;;;17.30;99.90;;;;;;5014667;28;20076;-69
2023/05/15 12:02:54;;;;;;;6.25;4.15;;;17.20;99.90;;;;;;5021208;28;20493;-69
2023/05/15 12:05:20;;;;;;;9.27;4.35;;;17.00;99.90;;;;;;5014943;28;20053;-69
2023/05/15 12:07:46;;;;;;;7.05;4.55;;;16.90;99.90;;;;;;5011737;28;20059;-69
2023/05/15 12:10:15;;;;;;;7.05;4.38;;;16.70;99.90;;;;;;5031363;28;20515;-68
2023/05/15 12:12:45;;;;;;;6.50;4.43;;;16.60;99.90;;;;;;5029441;28;20115;-69
2023/05/15 12:15:16;;;;;;;9.38;4.55;;;16.50;99.90;;;;;;5010464;28;20411;-69
2023/05/15 12:17:43;;;;;;;6.85;4.20;;;16.50;99.90;;;;;;5016114;28;20099;-69
2023/05/15 12:20:15;;;;;;;6.57;4.22;;;16.50;99.90;;;;;;5018900;28;20041;-69
2023/05/15 12:22:41;;;;;;;5.57;3.85;;;16.50;99.90;;;;;;5014982;28;20041;-69
2023/05/15 12:25:08;;;;;;;8.35;4.30;;;16.50;99.90;;;;;;4994278;28;20049;-69
2023/05/15 12:27:35;;;;;;;6.93;4.28;;;16.50;99.90;;;;;;5019546;28;20054;-69
2023/05/15 12:30:04;;;;;;;6.03;4.03;;;16.40;99.90;;;;;;5019962;28;20054;-69
2023/05/15 12:32:33;;;;;;;7.78;4.53;;;16.40;99.90;;;;;;5017490;28;20140;-69
2023/05/15 12:35:00;;;;;;;7.43;4.82;;;16.40;99.90;;;;;;5034942;22;20491;-68
2023/05/15 12:37:29;;;;;;;6.85;3.88;;;16.30;99.90;;;;;;5035169;28;20356;-68
2023/05/15 12:40:09;;;;;;;7.78;4.50;;;16.30;99.90;;;;;;5039994;28;20118;-68
2023/05/15 12:42:42;;;;;;;7.50;4.13;;;16.30;99.90;;;;;;5033714;28;20414;-66
2023/05/15 12:45:15;;;;;;;7.95;4.28;;;16.20;99.90;;;;;;5033163;28;20652;-68
2023/05/15 12:47:42;;;;;;;6.78;4.07;;;16.20;99.90;;;;;;5033889;28;20045;-67